createdAt,value
2019-03-30T00:00:51.081Z,101097.27
2019-03-30T00:03:41.937Z,101090.59
2019-03-30T00:06:25.386Z,101092.50
2019-03-30T00:09:16.313Z,101092.15
2019-03-30T00:11:59.705Z,101089.55
2019-03-30T00:14:50.597Z,101085.27
2019-03-30T00:17:34.154Z,101085.27
2019-03-30T00:20:25.105Z,101084.63
2019-03-30T00:23:08.030Z,101081.90
2019-03-30T00:25:58.950Z,101075.91
2019-03-30T00:28:42.283Z,101076.34
2019-03-30T00:31:33.187Z,101074.59
2019-03-30T00:34:16.452Z,101074.39
2019-03-30T00:37:07.377Z,101073.52
2019-03-30T00:39:51.048Z,101075.41
2019-03-30T00:42:41.957Z,101069.95
2019-03-30T00:45:24.922Z,101062.05
2019-03-30T00:48:15.827Z,101066.25
2019-03-30T00:50:59.479Z,101064.88
2019-03-30T00:53:50.414Z,101062.75
2019-03-30T00:56:34.038Z,101064.41
2019-03-30T00:59:24.990Z,101053.66
2019-03-30T01:02:08.674Z,101052.78
2019-03-30T01:04:59.595Z,101056.08
2019-03-30T01:07:43.388Z,101046.22
2019-03-30T01:10:34.310Z,101043.08
2019-03-30T01:13:17.785Z,101036.11
2019-03-30T01:16:08.821Z,101031.95
2019-03-30T01:18:52.367Z,101024.14
2019-03-30T01:21:43.286Z,101026.73
2019-03-30T01:24:26.849Z,101023.91
2019-03-30T01:27:17.714Z,101020.80
2019-03-30T01:30:00.643Z,101019.62
2019-03-30T01:32:51.540Z,101018.42
2019-03-30T01:35:34.759Z,101013.80
2019-03-30T01:38:25.686Z,101012.20
2019-03-30T01:41:08.835Z,101009.06
2019-03-30T01:43:59.721Z,101002.77
2019-03-30T01:46:42.640Z,101000.94
2019-03-30T01:49:33.543Z,101002.23
2019-03-30T01:52:16.627Z,100994.61
2019-03-30T01:55:07.780Z,100999.56
2019-03-30T01:57:51.682Z,101001.30
2019-03-30T02:00:42.765Z,100992.28
2019-03-30T02:03:25.810Z,100989.78
2019-03-30T02:06:16.736Z,100983.73
2019-03-30T02:08:59.789Z,100983.97
2019-03-30T02:11:50.721Z,100980.87
2019-03-30T02:14:33.708Z,100981.68
2019-03-30T02:17:24.596Z,100978.78
2019-03-30T02:20:08.175Z,100975.77
2019-03-30T02:22:59.069Z,100970.52
2019-03-30T02:25:42.440Z,100969.37
2019-03-30T02:28:33.350Z,100967.81
2019-03-30T02:31:16.305Z,100968.26
2019-03-30T02:34:07.198Z,100965.61
2019-03-30T02:36:50.810Z,100966.36
2019-03-30T02:39:41.719Z,100963.81
2019-03-30T02:42:25.013Z,100958.66
2019-03-30T02:45:15.891Z,100961.01
2019-03-30T02:47:58.933Z,100957.62
2019-03-30T02:50:50.851Z,100951.09
2019-03-30T02:53:54.774Z,100953.86
2019-03-30T02:56:45.659Z,100953.67
2019-03-30T02:59:29.369Z,100949.73
2019-03-30T03:02:20.272Z,100952.75
2019-03-30T03:05:03.017Z,100949.30
2019-03-30T03:07:53.891Z,100944.27
2019-03-30T03:10:37.558Z,100947.70
2019-03-30T03:13:28.461Z,100941.64
2019-03-30T03:16:11.790Z,100948.08
2019-03-30T03:18:55.365Z,100939.75
2019-03-30T03:21:46.265Z,100938.37
2019-03-30T03:24:29.992Z,100939.47
2019-03-30T03:27:20.866Z,100938.52
2019-03-30T03:30:03.878Z,100930.48
2019-03-30T03:32:54.787Z,100926.20
2019-03-30T03:35:38.321Z,100924.23
2019-03-30T03:38:29.229Z,100922.47
2019-03-30T03:41:12.904Z,100919.98
2019-03-30T03:44:03.810Z,100924.44
2019-03-30T03:46:47.437Z,100918.08
2019-03-30T03:49:38.328Z,100920.20
2019-03-30T03:52:21.861Z,100920.92
2019-03-30T03:55:05.413Z,100920.06
2019-03-30T03:57:56.390Z,100919.98
2019-03-30T04:00:39.882Z,100913.27
2019-03-30T04:04:10.507Z,100909.96
2019-03-30T04:06:55.516Z,100912.47
2019-03-30T04:13:34.668Z,100901.55
2019-03-30T04:16:25.572Z,100899.80
2019-03-30T04:19:16.495Z,100897.64
2019-03-30T04:22:07.408Z,100895.42
2019-03-30T04:24:50.914Z,100895.06
2019-03-30T04:27:41.834Z,100894.98
2019-03-30T04:30:24.746Z,100896.32
2019-03-30T04:33:15.674Z,100890.97
2019-03-30T04:35:58.872Z,100889.05
2019-03-30T04:38:49.780Z,100890.22
2019-03-30T04:41:33.143Z,100879.33
2019-03-30T04:44:24.068Z,100881.81
2019-03-30T04:47:07.234Z,100884.02
2019-03-30T04:49:58.152Z,100880.64
2019-03-30T04:52:41.789Z,100873.46
2019-03-30T04:55:32.693Z,100876.48
2019-03-30T04:58:16.109Z,100871.66
2019-03-30T05:01:07.016Z,100874.93
2019-03-30T05:03:50.573Z,100874.72
2019-03-30T05:06:41.502Z,100871.73
2019-03-30T05:09:44.956Z,100866.97
2019-03-30T05:12:35.828Z,100869.24
2019-03-30T05:15:19.629Z,100869.37
2019-03-30T05:18:10.602Z,100873.34
2019-03-30T05:20:53.970Z,100867.13
2019-03-30T05:23:44.843Z,100870.02
2019-03-30T05:26:28.292Z,100868.28
2019-03-30T05:29:19.199Z,100863.28
2019-03-30T05:32:02.064Z,100858.62
2019-03-30T05:34:52.990Z,100858.92
2019-03-30T05:37:36.575Z,100861.55
2019-03-30T05:40:19.380Z,100858.86
2019-03-30T05:43:10.365Z,100863.61
2019-03-30T05:45:53.626Z,100860.92
2019-03-30T05:48:44.486Z,100858.55
2019-03-30T05:51:27.892Z,100854.89
2019-03-30T05:54:18.813Z,100853.28
2019-03-30T05:57:01.717Z,100853.64
2019-03-30T05:59:55.698Z,100851.55
2019-03-30T06:02:57.757Z,100852.12
2019-03-30T06:05:48.666Z,100857.23
2019-03-30T06:11:23.050Z,100848.26
2019-03-30T06:14:13.974Z,100850.96
2019-03-30T06:16:56.993Z,100846.04
2019-03-30T06:19:47.883Z,100842.36
2019-03-30T06:22:40.271Z,100839.94
2019-03-30T06:25:23.456Z,100840.53
2019-03-30T06:28:06.997Z,100839.69
2019-03-30T06:30:57.180Z,100842.08
2019-03-30T06:33:40.426Z,100835.91
2019-03-30T06:36:31.325Z,100834.53
2019-03-30T06:39:14.695Z,100839.59
2019-03-30T06:42:03.886Z,100837.52
2019-03-30T06:44:46.981Z,100841.11
2019-03-30T06:47:37.854Z,100839.12
2019-03-30T06:50:20.716Z,100843.37
2019-03-30T06:53:11.596Z,100834.16
2019-03-30T06:55:55.317Z,100831.56
2019-03-30T06:58:46.233Z,100831.20
2019-03-30T07:01:30.073Z,100832.47
2019-03-30T07:04:20.982Z,100829.05
2019-03-30T07:07:03.813Z,100828.48
2019-03-30T07:13:47.955Z,100832.07
2019-03-30T07:16:33.006Z,100826.41
2019-03-30T07:23:12.753Z,100827.09
2019-03-30T07:26:03.905Z,100819.41
2019-03-30T07:28:54.853Z,100826.18
2019-03-30T07:31:38.188Z,100827.11
2019-03-30T07:34:29.136Z,100831.89
2019-03-30T07:40:03.937Z,100833.32
2019-03-30T07:42:54.851Z,100841.35
2019-03-30T07:45:37.664Z,100838.62
2019-03-30T07:48:28.596Z,100834.78
2019-03-30T07:51:11.846Z,100835.64
2019-03-30T07:54:02.750Z,100841.11
2019-03-30T07:59:36.838Z,100838.74
2019-03-30T08:02:27.728Z,100838.76
2019-03-30T08:05:11.283Z,100840.35
2019-03-30T08:08:02.174Z,100845.62
2019-03-30T08:10:45.060Z,100840.50
2019-03-30T08:13:35.997Z,100840.84
2019-03-30T08:16:38.912Z,100832.14
2019-03-30T08:19:29.811Z,100834.92
2019-03-30T08:22:13.023Z,100835.19
2019-03-30T08:24:56.192Z,100836.52
2019-03-30T08:27:47.091Z,100837.09
2019-03-30T08:33:26.700Z,100840.72
2019-03-30T08:36:10.021Z,100835.91
2019-03-30T08:38:53.636Z,100842.70
2019-03-30T08:41:44.495Z,100838.30
2019-03-30T08:44:28.028Z,100838.34
2019-03-30T08:47:18.934Z,100841.02
2019-03-30T08:50:06.625Z,100837.97
2019-03-30T08:52:57.548Z,100835.65
2019-03-30T08:55:47.015Z,100835.56
2019-03-30T08:58:30.622Z,100823.08
2019-03-30T09:01:21.531Z,100827.31
2019-03-30T09:04:05.376Z,100820.28
2019-03-30T09:06:56.280Z,100827.86
2019-03-30T09:09:39.549Z,100823.61
2019-03-30T09:12:30.416Z,100823.63
2019-03-30T09:15:13.383Z,100824.86
2019-03-30T09:18:05.396Z,100825.49
2019-03-30T09:20:48.222Z,100828.55
2019-03-30T09:23:39.137Z,100838.03
2019-03-30T09:26:22.742Z,100817.77
2019-03-30T09:29:13.645Z,100818.22
2019-03-30T09:32:14.334Z,100819.87
2019-03-30T09:35:09.653Z,100810.38
2019-03-30T09:38:00.546Z,100815.33
2019-03-30T09:40:43.916Z,100808.55
2019-03-30T09:43:37.415Z,100807.08
2019-03-30T09:46:40.072Z,100801.52
2019-03-30T09:49:30.992Z,100806.25
2019-03-30T09:52:14.017Z,100805.16
2019-03-30T09:55:05.294Z,100809.93
2019-03-30T09:57:48.218Z,100807.01
2019-03-30T10:00:31.171Z,100805.92
2019-03-30T10:03:22.042Z,100801.25
2019-03-30T10:06:05.142Z,100799.94
2019-03-30T10:08:56.036Z,100797.47
2019-03-30T10:11:38.830Z,100789.41
2019-03-30T10:14:29.717Z,100790.11
2019-03-30T10:17:13.869Z,100799.92
2019-03-30T10:23:00.270Z,100792.13
2019-03-30T10:25:43.812Z,100793.86
2019-03-30T10:28:53.439Z,100784.77
2019-03-30T10:31:37.028Z,100796.27
2019-03-30T10:34:27.993Z,100785.25
2019-03-30T10:37:11.597Z,100788.02
2019-03-30T10:40:02.535Z,100796.20
2019-03-30T10:42:45.813Z,100772.87
2019-03-30T10:45:36.714Z,100786.72
2019-03-30T10:48:20.146Z,100790.25
2019-03-30T10:51:11.051Z,100788.86
2019-03-30T10:53:54.243Z,100783.58
2019-03-30T10:56:37.181Z,100784.80
2019-03-30T10:59:28.098Z,100782.37
2019-03-30T11:02:11.768Z,100774.00
2019-03-30T11:05:02.676Z,100776.35
2019-03-30T11:07:46.368Z,100780.84
2019-03-30T11:10:37.267Z,100776.75
2019-03-30T11:13:24.858Z,100767.73
2019-03-30T11:16:15.713Z,100763.08
2019-03-30T11:19:04.803Z,100762.64
2019-03-30T11:21:48.025Z,100763.78
2019-03-30T11:24:31.754Z,100754.91
2019-03-30T11:27:22.658Z,100765.77
2019-03-30T11:30:12.238Z,100749.75
2019-03-30T11:32:55.774Z,100746.91
2019-03-30T11:35:46.668Z,100733.83
2019-03-30T11:38:29.655Z,100745.20
2019-03-30T11:41:20.582Z,100748.42
2019-03-30T11:44:04.251Z,100753.48
2019-03-30T11:46:55.147Z,100736.52
2019-03-30T11:49:38.014Z,100743.14
2019-03-30T11:52:28.933Z,100742.25
2019-03-30T11:55:21.765Z,100735.31
2019-03-30T11:57:57.831Z,100733.92
2019-03-30T12:00:48.734Z,100732.64
2019-03-30T12:03:31.563Z,100726.94
2019-03-30T12:06:22.518Z,100717.00
2019-03-30T12:09:06.706Z,100718.86
2019-03-30T12:11:57.642Z,100726.77
2019-03-30T12:14:41.323Z,100717.49
2019-03-30T12:17:32.262Z,100718.31
2019-03-30T12:20:15.442Z,100716.55
2019-03-30T12:23:06.366Z,100712.09
2019-03-30T12:25:57.277Z,100707.71
2019-03-30T12:28:48.172Z,100708.40
2019-03-30T12:31:31.847Z,100704.45
2019-03-30T12:34:22.755Z,100695.14
2019-03-30T12:37:05.685Z,100689.23
2019-03-30T12:39:58.255Z,100691.38
2019-03-30T12:43:01.557Z,100679.30
2019-03-30T12:45:52.471Z,100680.83
2019-03-30T12:48:37.297Z,100668.41
2019-03-30T12:51:28.202Z,100671.07
2019-03-30T12:54:11.081Z,100674.45
2019-03-30T12:57:02.020Z,100677.89
2019-03-30T12:59:44.925Z,100675.74
2019-03-30T13:09:57.669Z,100663.84
2019-03-30T13:12:48.579Z,100671.34
2019-03-30T13:15:31.620Z,100659.58
2019-03-30T13:18:22.547Z,100651.36
2019-03-30T13:21:05.896Z,100659.17
2019-03-30T13:23:56.788Z,100647.13
2019-03-30T13:26:40.635Z,100657.57
2019-03-30T13:29:31.543Z,100659.98
2019-03-30T13:32:14.606Z,100660.07
2019-03-30T13:35:05.658Z,100654.48
2019-03-30T13:37:48.967Z,100657.20
2019-03-30T13:40:39.899Z,100655.03
2019-03-30T13:43:26.842Z,100654.81
2019-03-30T13:46:17.776Z,100646.16
2019-03-30T13:49:01.134Z,100642.48
2019-03-30T13:51:52.047Z,100634.66
2019-03-30T13:54:54.906Z,100640.81
2019-03-30T13:57:38.517Z,100637.25
2019-03-30T14:00:22.082Z,100641.09
2019-03-30T14:03:12.983Z,100639.73
2019-03-30T14:05:56.052Z,100624.00
2019-03-30T14:08:47.006Z,100622.48
2019-03-30T14:11:19.116Z,100629.34
2019-03-30T14:14:10.016Z,100627.26
2019-03-30T14:16:52.903Z,100622.16
2019-03-30T14:19:43.756Z,100627.05
2019-03-30T14:22:27.180Z,100620.03
2019-03-30T14:25:10.560Z,100622.00
2019-03-30T14:28:01.514Z,100628.28
2019-03-30T14:30:44.330Z,100618.06
2019-03-30T14:33:35.251Z,100618.23
2019-03-30T14:36:18.942Z,100620.31
2019-03-30T14:39:09.921Z,100619.16
2019-03-30T14:42:00.900Z,100611.80
2019-03-30T14:44:43.686Z,100607.31
2019-03-30T14:47:27.240Z,100609.00
2019-03-30T14:50:18.234Z,100604.47
2019-03-30T14:53:01.582Z,100604.66
2019-03-30T14:55:52.528Z,100607.94
2019-03-30T14:58:36.242Z,100605.63
2019-03-30T15:01:27.111Z,100607.08
2019-03-30T15:04:10.433Z,100600.03
2019-03-30T15:07:01.418Z,100593.70
2019-03-30T15:09:44.281Z,100595.52
2019-03-30T15:12:35.194Z,100601.17
2019-03-30T15:15:18.041Z,100604.15
2019-03-30T15:18:08.953Z,100595.38
2019-03-30T15:20:52.657Z,100589.13
2019-03-30T15:23:43.563Z,100593.17
2019-03-30T15:26:27.177Z,100594.14
2019-03-30T15:29:18.076Z,100591.81
2019-03-30T15:32:01.389Z,100585.73
2019-03-30T15:34:52.295Z,100588.30
2019-03-30T15:37:35.517Z,100582.41
2019-03-30T15:40:26.440Z,100580.55
2019-03-30T15:43:09.975Z,100588.16
2019-03-30T15:46:00.914Z,100578.65
2019-03-30T15:48:44.168Z,100580.39
2019-03-30T15:51:37.523Z,100590.25
2019-03-30T15:54:39.927Z,100590.83
2019-03-30T15:57:30.868Z,100582.14
2019-03-30T16:00:15.729Z,100583.67
2019-03-30T16:03:06.670Z,100583.34
2019-03-30T16:06:09.791Z,100583.94
2019-03-30T16:09:00.710Z,100582.44
2019-03-30T16:11:43.656Z,100574.42
2019-03-30T16:14:34.579Z,100579.61
2019-03-30T16:17:17.557Z,100570.78
2019-03-30T16:20:28.884Z,100579.96
2019-03-30T16:23:12.518Z,100579.00
2019-03-30T16:26:03.421Z,100584.89
2019-03-30T16:29:06.572Z,100581.66
2019-03-30T16:32:14.936Z,100582.67
2019-03-30T16:34:58.451Z,100576.98
2019-03-30T16:37:49.329Z,100582.16
2019-03-30T16:40:32.619Z,100581.72
2019-03-30T16:43:23.539Z,100578.52
2019-03-30T16:46:06.658Z,100575.42
2019-03-30T16:48:57.530Z,100571.96
2019-03-30T16:51:40.658Z,100576.50
2019-03-30T16:54:31.504Z,100578.12
2019-03-30T16:57:43.064Z,100578.88
2019-03-30T17:04:14.928Z,100582.14
2019-03-30T17:07:05.830Z,100572.53
2019-03-30T17:09:56.738Z,100577.39
2019-03-30T17:12:28.854Z,100573.71
2019-03-30T17:15:00.948Z,100574.90
2019-03-30T17:17:51.824Z,100580.18
2019-03-30T17:20:35.684Z,100575.91
2019-03-30T17:23:26.613Z,100579.97
2019-03-30T17:26:09.672Z,100578.50
2019-03-30T17:29:00.587Z,100574.23
2019-03-30T17:31:43.961Z,100577.11
2019-03-30T17:34:34.867Z,100581.32
2019-03-30T17:37:18.030Z,100578.74
2019-03-30T17:40:10.421Z,100581.26
2019-03-30T17:42:53.854Z,100579.27
2019-03-30T17:45:44.827Z,100580.25
2019-03-30T17:48:28.293Z,100580.11
2019-03-30T17:51:19.229Z,100574.52
2019-03-30T17:54:02.742Z,100579.69
2019-03-30T17:56:53.633Z,100581.67
2019-03-30T17:59:36.703Z,100581.80
2019-03-30T18:02:27.718Z,100588.99
2019-03-30T18:05:11.084Z,100585.70
2019-03-30T18:08:02.200Z,100591.38
2019-03-30T18:10:51.151Z,100594.88
2019-03-30T18:13:59.239Z,100592.38
2019-03-30T18:16:46.980Z,100594.19
2019-03-30T18:19:36.253Z,100598.92
2019-03-30T18:25:11.196Z,100599.38
2019-03-30T18:28:04.597Z,100599.92
2019-03-30T18:30:47.484Z,100603.95
2019-03-30T18:33:38.385Z,100602.64
2019-03-30T18:36:27.040Z,100613.13
2019-03-30T18:39:10.374Z,100611.53
2019-03-30T18:42:01.358Z,100622.78
2019-03-30T18:44:44.820Z,100627.88
2019-03-30T18:47:35.755Z,100622.28
2019-03-30T18:50:19.402Z,100630.38
2019-03-30T18:56:13.938Z,100639.67
2019-03-30T18:58:57.320Z,100646.90
2019-03-30T19:01:48.277Z,100644.34
2019-03-30T19:04:31.936Z,100646.92
2019-03-30T19:07:22.859Z,100648.25
2019-03-30T19:10:06.597Z,100644.73
2019-03-30T19:12:57.517Z,100650.89
2019-03-30T19:15:41.253Z,100650.13
2019-03-30T19:18:32.131Z,100654.49
2019-03-30T19:21:15.311Z,100646.61
2019-03-30T19:24:25.028Z,100649.25
2019-03-30T19:27:08.570Z,100646.00
2019-03-30T19:29:58.014Z,100643.53
2019-03-30T19:32:41.551Z,100646.99
2019-03-30T19:35:32.451Z,100645.73
2019-03-30T19:38:15.967Z,100647.50
2019-03-30T19:41:06.853Z,100653.64
2019-03-30T19:43:49.873Z,100648.70
2019-03-30T19:46:22.053Z,100657.48
2019-03-30T19:49:13.000Z,100654.80
2019-03-30T19:51:55.839Z,100659.14
2019-03-30T19:55:05.593Z,100661.91
2019-03-30T19:57:48.550Z,100657.22
2019-03-30T20:00:39.464Z,100659.45
2019-03-30T20:03:22.599Z,100664.05
2019-03-30T20:06:13.545Z,100657.77
2019-03-30T20:08:56.732Z,100659.45
2019-03-30T20:11:47.668Z,100662.81
2019-03-30T20:14:31.100Z,100662.14
2019-03-30T20:17:22.015Z,100664.55
2019-03-30T20:20:05.489Z,100666.62
2019-03-30T20:22:56.396Z,100664.89
2019-03-30T20:25:39.540Z,100669.83
2019-03-30T20:28:30.505Z,100667.91
2019-03-30T20:31:13.530Z,100669.42
2019-03-30T20:37:52.408Z,100661.87
2019-03-30T20:40:43.335Z,100655.48
2019-03-30T20:43:26.395Z,100653.73
2019-03-30T20:46:17.371Z,100657.95
2019-03-30T20:49:01.057Z,100664.81
2019-03-30T20:51:51.989Z,100663.27
2019-03-30T20:54:34.927Z,100662.49
2019-03-30T20:57:17.948Z,100658.58
2019-03-30T21:03:36.765Z,100664.73
2019-03-30T21:06:27.636Z,100662.03
2019-03-30T21:09:18.643Z,100665.05
2019-03-30T21:12:02.099Z,100664.59
2019-03-30T21:14:53.024Z,100661.23
2019-03-30T21:17:35.966Z,100665.05
2019-03-30T21:20:26.832Z,100664.73
2019-03-30T21:23:10.072Z,100667.85
2019-03-30T21:26:01.040Z,100666.47
2019-03-30T21:29:11.876Z,100664.68
2019-03-30T21:32:02.268Z,100666.28
2019-03-30T21:34:53.200Z,100665.82
2019-03-30T21:37:36.222Z,100668.78
2019-03-30T21:40:27.146Z,100666.05
2019-03-30T21:43:10.277Z,100670.11
2019-03-30T21:46:01.227Z,100667.05
2019-03-30T21:48:45.039Z,100669.25
2019-03-30T21:51:35.967Z,100661.85
2019-03-30T21:54:19.156Z,100666.78
2019-03-30T21:57:10.091Z,100670.20
2019-03-30T21:59:53.033Z,100669.25
2019-03-30T22:02:43.953Z,100673.53
2019-03-30T22:05:26.904Z,100672.92
2019-03-30T22:08:17.806Z,100662.14
2019-03-30T22:11:00.691Z,100658.56
2019-03-30T22:13:51.635Z,100661.22
2019-03-30T22:16:34.786Z,100666.20
2019-03-30T22:19:06.909Z,100672.42
2019-03-30T22:21:57.836Z,100672.52
2019-03-30T22:24:48.740Z,100667.86
2019-03-30T22:27:32.266Z,100671.34
2019-03-30T22:30:24.966Z,100672.08
2019-03-30T22:33:31.601Z,100668.25
2019-03-30T22:39:24.754Z,100668.03
2019-03-30T22:42:15.650Z,100672.23
2019-03-30T22:44:59.320Z,100667.50
2019-03-30T22:47:50.243Z,100658.36
2019-03-30T22:50:33.984Z,100659.77
2019-03-30T22:53:24.978Z,100664.22
2019-03-30T22:56:08.576Z,100669.30
2019-03-30T22:58:59.496Z,100670.94
2019-03-30T23:01:42.434Z,100664.88
2019-03-30T23:04:33.348Z,100662.73
2019-03-30T23:07:16.865Z,100665.56
2019-03-30T23:10:07.978Z,100669.13
2019-03-30T23:12:51.291Z,100666.66
2019-03-30T23:15:42.232Z,100669.45
2019-03-30T23:18:25.178Z,100673.19
2019-03-30T23:21:16.073Z,100680.41
2019-03-30T23:23:59.083Z,100669.14
2019-03-30T23:26:49.998Z,100667.13
2019-03-30T23:29:33.158Z,100665.48
2019-03-30T23:32:26.601Z,100667.95
2019-03-30T23:35:09.702Z,100659.33
2019-03-30T23:38:00.606Z,100661.19
2019-03-30T23:40:44.357Z,100664.56
2019-03-30T23:43:35.247Z,100667.16
2019-03-30T23:46:18.886Z,100669.80
2019-03-30T23:49:09.792Z,100667.13
2019-03-30T23:51:53.620Z,100670.16
2019-03-30T23:54:44.493Z,100668.84
2019-03-30T23:57:27.712Z,100668.33
